createdAt,value
2022-11-10T00:02:09.529Z,7.16
2022-11-10T00:04:37.272Z,7.16
2022-11-10T00:07:05.548Z,7.17
2022-11-10T00:09:33.512Z,7.16
2022-11-10T00:12:01.240Z,7.16
2022-11-10T00:14:47.900Z,7.16
2022-11-10T00:17:15.769Z,7.17
2022-11-10T00:19:43.532Z,7.19
2022-11-10T00:22:11.348Z,7.21
2022-11-10T00:24:39.125Z,7.23
2022-11-10T00:27:06.846Z,7.27
2022-11-10T00:29:35.095Z,7.29
2022-11-10T00:32:02.786Z,7.31
2022-11-10T00:34:30.722Z,7.33
2022-11-10T00:36:58.667Z,7.35
2022-11-10T00:39:26.560Z,7.36
2022-11-10T00:41:57.802Z,7.40
2022-11-10T00:44:25.666Z,7.43
2022-11-10T00:46:53.430Z,7.45
2022-11-10T00:49:21.193Z,7.47
2022-11-10T00:51:49.055Z,7.48
2022-11-10T00:54:16.825Z,7.49
2022-11-10T00:56:44.864Z,7.53
2022-11-10T00:59:12.541Z,7.53
2022-11-10T01:01:40.357Z,7.54
2022-11-10T01:04:08.510Z,7.56
2022-11-10T01:06:38.759Z,7.56
2022-11-10T01:09:06.461Z,7.57
2022-11-10T01:11:34.154Z,7.59
2022-11-10T01:14:01.896Z,7.60
2022-11-10T01:16:31.930Z,7.62
2022-11-10T01:19:02.187Z,7.61
2022-11-10T01:21:30.563Z,7.62
2022-11-10T01:23:58.611Z,7.62
2022-11-10T01:26:26.395Z,7.62
2022-11-10T01:28:54.368Z,7.63
2022-11-10T01:31:22.693Z,7.65
2022-11-10T01:33:50.452Z,7.66
2022-11-10T01:36:18.218Z,7.64
2022-11-10T01:38:45.940Z,7.64
2022-11-10T01:41:15.366Z,7.65
2022-11-10T01:43:43.478Z,7.66
2022-11-10T01:46:13.401Z,7.66
2022-11-10T01:48:52.823Z,7.68
2022-11-10T01:51:29.861Z,7.69
2022-11-10T01:54:01.339Z,7.70
2022-11-10T01:56:32.559Z,7.71
2022-11-10T01:59:05.362Z,7.72
2022-11-10T02:01:33.130Z,7.75
2022-11-10T02:04:06.377Z,7.74
2022-11-10T02:06:38.268Z,7.74
2022-11-10T02:09:06.507Z,7.76
2022-11-10T02:11:35.557Z,7.79
2022-11-10T02:14:04.243Z,7.81
2022-11-10T02:16:33.176Z,7.82
2022-11-10T02:19:17.159Z,7.84
2022-11-10T02:21:44.924Z,7.83
2022-11-10T02:24:12.848Z,7.80
2022-11-10T02:26:59.090Z,7.81
2022-11-10T02:29:27.094Z,7.77
2022-11-10T02:31:54.828Z,7.74
2022-11-10T02:34:22.583Z,7.74
2022-11-10T02:36:50.445Z,7.74
2022-11-10T02:39:18.148Z,7.77
2022-11-10T02:41:45.870Z,7.80
2022-11-10T02:44:13.735Z,7.82
2022-11-10T02:46:41.732Z,7.85
2022-11-10T02:49:09.425Z,7.87
2022-11-10T02:51:37.109Z,7.90
2022-11-10T02:54:06.248Z,7.92
2022-11-10T02:56:35.434Z,7.94
2022-11-10T02:59:03.616Z,7.96
2022-11-10T03:01:31.397Z,7.98
2022-11-10T03:03:59.210Z,8.01
2022-11-10T03:06:26.942Z,8.03
2022-11-10T03:08:54.668Z,8.06
2022-11-10T03:11:22.406Z,8.06
2022-11-10T03:14:01.344Z,8.07
2022-11-10T03:16:30.574Z,8.06
2022-11-10T03:18:58.911Z,8.04
2022-11-10T03:21:26.621Z,8.05
2022-11-10T03:23:54.327Z,8.05
2022-11-10T03:26:22.623Z,8.06
2022-11-10T03:28:50.889Z,8.06
2022-11-10T03:31:18.824Z,8.07
2022-11-10T03:33:46.545Z,8.08
2022-11-10T03:36:14.371Z,8.06
2022-11-10T03:38:42.095Z,8.07
2022-11-10T03:41:19.323Z,8.07
2022-11-10T03:43:49.117Z,8.06
2022-11-10T03:46:18.327Z,8.06
2022-11-10T03:48:51.802Z,8.06
2022-11-10T03:51:21.921Z,8.06
2022-11-10T03:53:50.218Z,8.06
2022-11-10T03:56:18.071Z,8.05
2022-11-10T03:58:45.823Z,8.06
2022-11-10T04:01:13.487Z,8.07
2022-11-10T04:03:41.270Z,8.07
2022-11-10T04:06:30.197Z,8.08
2022-11-10T04:09:00.872Z,8.08
2022-11-10T04:11:49.224Z,8.08
2022-11-10T04:14:35.965Z,8.09
2022-11-10T04:17:04.394Z,8.10
2022-11-10T04:19:32.447Z,8.12
2022-11-10T04:22:00.153Z,8.13
2022-11-10T04:24:27.998Z,8.14
2022-11-10T04:26:55.762Z,8.16
2022-11-10T04:29:23.470Z,8.17
2022-11-10T04:31:51.162Z,8.15
2022-11-10T04:34:18.944Z,8.15
2022-11-10T04:36:46.708Z,8.16
2022-11-10T04:39:14.399Z,8.16
2022-11-10T04:41:42.428Z,8.17
2022-11-10T04:44:10.214Z,8.15
2022-11-10T04:46:39.993Z,8.14
2022-11-10T04:49:08.719Z,8.16
2022-11-10T04:51:39.350Z,8.13
2022-11-10T04:54:07.912Z,8.15
2022-11-10T04:56:35.876Z,8.14
2022-11-10T04:59:03.639Z,8.15
2022-11-10T05:01:31.822Z,8.14
2022-11-10T05:03:59.585Z,8.14
2022-11-10T05:06:27.981Z,8.14
2022-11-10T05:08:55.729Z,8.13
2022-11-10T05:11:23.718Z,8.14
2022-11-10T05:13:51.442Z,8.15
2022-11-10T05:16:20.030Z,8.15
2022-11-10T05:18:54.025Z,8.15
2022-11-10T05:21:21.803Z,8.15
2022-11-10T05:23:49.567Z,8.15
2022-11-10T05:26:19.688Z,8.17
2022-11-10T05:28:47.652Z,8.16
2022-11-10T05:31:15.428Z,8.17
2022-11-10T05:33:43.090Z,8.18
2022-11-10T05:36:11.250Z,8.20
2022-11-10T05:38:43.193Z,8.20
2022-11-10T05:41:11.708Z,8.19
2022-11-10T05:43:39.600Z,8.20
2022-11-10T05:46:07.386Z,8.19
2022-11-10T05:48:35.087Z,8.21
2022-11-10T05:51:02.863Z,8.24
2022-11-10T05:53:30.626Z,8.28
2022-11-10T05:55:58.364Z,8.30
2022-11-10T05:58:26.075Z,8.31
2022-11-10T06:00:53.899Z,8.31
2022-11-10T06:03:22.103Z,8.31
2022-11-10T06:05:50.158Z,8.32
2022-11-10T06:08:18.111Z,8.33
2022-11-10T06:10:45.871Z,8.33
2022-11-10T06:13:13.562Z,8.35
2022-11-10T06:15:43.869Z,8.35
2022-11-10T06:18:13.918Z,8.36
2022-11-10T06:20:41.835Z,8.39
2022-11-10T06:23:11.759Z,8.41
2022-11-10T06:25:41.277Z,8.43
2022-11-10T06:28:10.063Z,8.44
2022-11-10T06:30:38.192Z,8.47
2022-11-10T06:33:06.036Z,8.47
2022-11-10T06:35:33.885Z,8.49
2022-11-10T06:38:02.709Z,8.51
2022-11-10T06:40:31.885Z,8.54
2022-11-10T06:42:59.794Z,8.55
2022-11-10T06:45:30.866Z,8.57
2022-11-10T06:48:11.298Z,8.58
2022-11-10T06:50:39.315Z,8.59
2022-11-10T06:53:07.128Z,8.61
2022-11-10T06:55:34.892Z,8.61
2022-11-10T06:58:03.167Z,8.63
2022-11-10T07:00:31.044Z,8.64
2022-11-10T07:03:00.773Z,8.65
2022-11-10T07:05:28.814Z,8.66
2022-11-10T07:07:56.798Z,8.67
2022-11-10T07:10:24.500Z,8.70
2022-11-10T07:12:59.151Z,8.71
2022-11-10T07:15:27.131Z,8.72
2022-11-10T07:17:55.331Z,8.73
2022-11-10T07:20:23.072Z,8.75
2022-11-10T07:22:57.560Z,8.78
2022-11-10T07:25:25.869Z,8.79
2022-11-10T07:27:55.893Z,8.80
2022-11-10T07:30:24.288Z,8.83
2022-11-10T07:33:15.241Z,8.84
2022-11-10T07:35:43.033Z,8.86
2022-11-10T07:38:13.287Z,8.89
2022-11-10T07:40:41.118Z,8.92
2022-11-10T07:43:08.905Z,8.93
2022-11-10T07:45:36.667Z,8.94
2022-11-10T07:48:06.716Z,8.97
2022-11-10T07:50:34.597Z,9.00
2022-11-10T07:53:21.532Z,9.01
2022-11-10T07:55:49.510Z,9.05
2022-11-10T07:58:18.389Z,9.08
2022-11-10T08:00:47.109Z,9.11
2022-11-10T08:03:20.539Z,9.13
2022-11-10T08:05:48.849Z,9.15
2022-11-10T08:08:16.780Z,9.16
2022-11-10T08:10:45.081Z,9.19
2022-11-10T08:13:14.034Z,9.21
2022-11-10T08:15:42.258Z,9.21
2022-11-10T08:18:23.648Z,9.24
2022-11-10T08:20:52.672Z,9.29
2022-11-10T08:23:20.628Z,9.28
2022-11-10T08:25:53.086Z,9.32
2022-11-10T08:28:20.869Z,9.30
2022-11-10T08:30:49.504Z,9.31
2022-11-10T08:33:19.851Z,9.36
2022-11-10T08:35:50.280Z,9.40
2022-11-10T08:38:23.549Z,9.45
2022-11-10T08:40:51.277Z,9.48
2022-11-10T08:43:19.030Z,9.52
2022-11-10T08:45:47.148Z,9.58
2022-11-10T08:48:18.006Z,9.61
2022-11-10T08:50:47.195Z,9.64
2022-11-10T08:53:21.744Z,9.71
2022-11-10T08:55:50.608Z,9.73
2022-11-10T08:58:21.696Z,9.73
2022-11-10T09:00:49.923Z,9.76
2022-11-10T09:03:21.045Z,9.77
2022-11-10T09:05:56.851Z,9.78
2022-11-10T09:08:26.547Z,9.82
2022-11-10T09:10:54.594Z,9.82
2022-11-10T09:13:27.757Z,9.87
2022-11-10T09:16:02.115Z,9.88
2022-11-10T09:18:30.480Z,9.90
2022-11-10T09:20:58.558Z,9.94
2022-11-10T09:23:26.723Z,9.97
2022-11-10T09:25:56.314Z,9.95
2022-11-10T09:28:24.514Z,9.97
2022-11-10T09:30:52.979Z,9.94
2022-11-10T09:33:21.007Z,9.93
2022-11-10T09:35:49.388Z,9.93
2022-11-10T09:38:17.294Z,9.94
2022-11-10T09:41:08.171Z,9.96
2022-11-10T09:43:42.009Z,9.97
2022-11-10T09:46:21.649Z,9.99
2022-11-10T09:48:55.558Z,10.00
2022-11-10T09:51:32.560Z,10.02
2022-11-10T09:54:07.270Z,10.07
2022-11-10T09:56:37.260Z,10.11
2022-11-10T09:59:12.730Z,10.19
2022-11-10T10:02:04.989Z,10.25
2022-11-10T10:04:48.836Z,10.30
2022-11-10T10:07:58.499Z,10.36
2022-11-10T10:10:34.498Z,10.40
2022-11-10T10:13:08.506Z,10.48
2022-11-10T10:15:57.576Z,10.53
2022-11-10T10:18:50.221Z,10.55
2022-11-10T10:21:17.880Z,10.53
2022-11-10T10:24:10.024Z,10.58
2022-11-10T10:26:45.155Z,10.62
2022-11-10T10:29:38.085Z,10.64
2022-11-10T10:32:13.295Z,10.71
2022-11-10T10:34:43.325Z,10.81
2022-11-10T10:37:43.689Z,10.87
2022-11-10T10:40:21.891Z,10.94
2022-11-10T10:42:50.254Z,11.04
2022-11-10T10:45:21.532Z,11.11
2022-11-10T10:47:55.086Z,11.10
2022-11-10T10:50:30.784Z,11.12
2022-11-10T10:53:14.081Z,11.15
2022-11-10T10:56:01.566Z,11.19
2022-11-10T10:58:33.391Z,11.15
2022-11-10T11:01:16.470Z,11.19
2022-11-10T11:03:50.196Z,11.16
2022-11-10T11:06:22.105Z,11.16
2022-11-10T11:08:59.717Z,11.17
2022-11-10T11:11:34.182Z,11.18
2022-11-10T11:14:14.122Z,11.23
2022-11-10T11:16:47.925Z,11.23
2022-11-10T11:19:16.431Z,11.22
2022-11-10T11:22:02.488Z,11.27
2022-11-10T11:24:30.299Z,11.29
2022-11-10T11:27:08.601Z,11.27
2022-11-10T11:29:55.061Z,11.24
2022-11-10T11:32:53.642Z,11.20
2022-11-10T11:35:36.988Z,11.19
2022-11-10T11:38:16.735Z,11.23
2022-11-10T11:40:48.055Z,11.28
2022-11-10T11:43:34.683Z,11.27
2022-11-10T11:46:28.146Z,11.29
2022-11-10T11:49:20.727Z,11.30
2022-11-10T11:52:07.726Z,11.31
2022-11-10T11:54:50.933Z,11.32
2022-11-10T11:57:40.247Z,11.34
2022-11-10T12:00:17.286Z,11.37
2022-11-10T12:03:03.872Z,11.37
2022-11-10T12:05:48.559Z,11.38
2022-11-10T12:08:39.559Z,11.40
2022-11-10T12:11:51.111Z,11.41
2022-11-10T12:14:56.284Z,11.42
2022-11-10T12:17:46.825Z,11.43
2022-11-10T12:20:43.518Z,11.45
2022-11-10T12:23:21.150Z,11.45
2022-11-10T12:26:19.390Z,11.47
2022-11-10T12:28:54.943Z,11.46
2022-11-10T12:31:26.079Z,11.46
2022-11-10T12:33:58.738Z,11.46
2022-11-10T12:36:28.485Z,11.43
2022-11-10T12:39:05.410Z,11.41
2022-11-10T12:41:58.925Z,11.40
2022-11-10T12:44:40.196Z,11.39
2022-11-10T12:47:15.645Z,11.37
2022-11-10T12:49:56.082Z,11.40
2022-11-10T12:52:35.834Z,11.37
2022-11-10T12:55:04.378Z,11.37
2022-11-10T12:57:33.534Z,11.39
2022-11-10T13:00:05.668Z,11.36
2022-11-10T13:02:43.011Z,11.38
2022-11-10T13:05:14.069Z,11.40
2022-11-10T13:07:50.088Z,11.41
2022-11-10T13:10:28.353Z,11.42
2022-11-10T13:13:23.084Z,11.42
2022-11-10T13:15:54.778Z,11.43
2022-11-10T13:18:44.309Z,11.40
2022-11-10T13:21:12.379Z,11.37
2022-11-10T13:23:43.186Z,11.34
2022-11-10T13:26:32.064Z,11.35
2022-11-10T13:29:02.903Z,11.32
2022-11-10T13:31:33.543Z,11.29
2022-11-10T13:34:26.369Z,11.29
2022-11-10T13:36:54.868Z,11.27
2022-11-10T13:39:27.519Z,11.28
2022-11-10T13:42:10.364Z,11.28
2022-11-10T13:44:42.299Z,11.28
2022-11-10T13:47:10.086Z,11.28
2022-11-10T13:49:37.947Z,11.26
2022-11-10T13:52:16.613Z,11.21
2022-11-10T13:55:13.186Z,11.20
2022-11-10T13:58:24.835Z,11.18
2022-11-10T14:01:19.159Z,11.14
2022-11-10T14:03:47.769Z,11.11
2022-11-10T14:06:21.464Z,11.06
2022-11-10T14:09:12.631Z,11.01
2022-11-10T14:11:50.278Z,10.95
2022-11-10T14:14:31.728Z,10.92
2022-11-10T14:16:59.927Z,10.90
2022-11-10T14:19:41.328Z,10.90
2022-11-10T14:22:21.797Z,10.92
2022-11-10T14:25:01.709Z,10.93
2022-11-10T14:27:33.257Z,10.92
2022-11-10T14:30:05.032Z,10.90
2022-11-10T14:32:32.902Z,10.87
2022-11-10T14:35:01.936Z,10.83
2022-11-10T14:37:30.347Z,10.79
2022-11-10T14:40:01.429Z,10.76
2022-11-10T14:42:32.654Z,10.73
2022-11-10T14:45:06.229Z,10.73
2022-11-10T14:47:35.862Z,10.68
2022-11-10T14:50:25.430Z,10.66
2022-11-10T14:53:01.740Z,10.66
2022-11-10T14:55:33.865Z,10.62
2022-11-10T14:58:12.176Z,10.60
2022-11-10T15:00:42.519Z,10.58
2022-11-10T15:03:22.731Z,10.54
2022-11-10T15:05:50.736Z,10.50
2022-11-10T15:08:18.607Z,10.48
2022-11-10T15:10:49.528Z,10.45
2022-11-10T15:13:18.891Z,10.42
2022-11-10T15:15:46.652Z,10.40
2022-11-10T15:18:29.378Z,10.38
2022-11-10T15:21:10.579Z,10.34
2022-11-10T15:23:40.799Z,10.32
2022-11-10T15:26:26.954Z,10.29
2022-11-10T15:28:55.173Z,10.23
2022-11-10T15:31:33.884Z,10.19
2022-11-10T15:34:04.211Z,10.15
2022-11-10T15:36:39.776Z,10.10
2022-11-10T15:39:10.750Z,10.04
2022-11-10T15:41:43.878Z,9.97
2022-11-10T15:44:21.887Z,9.91
2022-11-10T15:46:53.895Z,9.82
2022-11-10T15:49:37.482Z,9.73
2022-11-10T15:52:12.644Z,9.68
2022-11-10T15:54:40.632Z,9.60
2022-11-10T15:57:18.181Z,9.56
2022-11-10T15:59:45.797Z,9.52
2022-11-10T16:02:25.074Z,9.48
2022-11-10T16:04:59.537Z,9.51
2022-11-10T16:07:27.771Z,9.54
2022-11-10T16:09:55.479Z,9.55
2022-11-10T16:12:23.786Z,9.57
2022-11-10T16:14:53.231Z,9.58
2022-11-10T16:17:20.981Z,9.61
2022-11-10T16:19:49.060Z,9.63
2022-11-10T16:22:16.905Z,9.65
2022-11-10T16:24:45.171Z,9.66
2022-11-10T16:27:14.997Z,9.68
2022-11-10T16:29:43.425Z,9.67
2022-11-10T16:32:11.953Z,9.64
2022-11-10T16:34:39.715Z,9.62
2022-11-10T16:37:12.106Z,9.60
2022-11-10T16:39:39.784Z,9.60
2022-11-10T16:42:10.072Z,9.56
2022-11-10T16:44:41.389Z,9.55
2022-11-10T16:47:19.160Z,9.53
2022-11-10T16:49:49.333Z,9.51
2022-11-10T16:52:21.307Z,9.50
2022-11-10T16:54:49.005Z,9.50
2022-11-10T16:57:17.540Z,9.50
2022-11-10T16:59:45.840Z,9.51
2022-11-10T17:02:28.206Z,9.49
2022-11-10T17:04:56.399Z,9.46
2022-11-10T17:07:27.127Z,9.42
2022-11-10T17:09:59.021Z,9.38
2022-11-10T17:12:26.972Z,9.35
2022-11-10T17:14:54.821Z,9.29
2022-11-10T17:17:23.506Z,9.23
2022-11-10T17:19:52.022Z,9.19
2022-11-10T17:22:21.717Z,9.14
2022-11-10T17:24:55.213Z,9.08
2022-11-10T17:27:23.212Z,9.05
2022-11-10T17:29:50.958Z,9.00
2022-11-10T17:32:24.196Z,8.97
2022-11-10T17:34:59.912Z,8.93
2022-11-10T17:37:27.749Z,8.89
2022-11-10T17:39:55.525Z,8.87
2022-11-10T17:42:23.221Z,8.85
2022-11-10T17:44:50.895Z,8.83
2022-11-10T17:47:18.881Z,8.82
2022-11-10T17:49:46.553Z,8.83
2022-11-10T17:52:18.301Z,8.80
2022-11-10T17:54:46.063Z,8.82
2022-11-10T17:57:13.825Z,8.80
2022-11-10T17:59:41.533Z,8.78
2022-11-10T18:02:11.454Z,8.76
2022-11-10T18:04:39.363Z,8.73
2022-11-10T18:07:07.077Z,8.71
2022-11-10T18:09:34.804Z,8.69
2022-11-10T18:12:02.475Z,8.62
2022-11-10T18:14:33.916Z,8.58
2022-11-10T18:17:01.473Z,8.52
2022-11-10T18:19:29.155Z,8.50
2022-11-10T18:21:56.993Z,8.49
2022-11-10T18:24:24.750Z,8.46
2022-11-10T18:26:52.468Z,8.42
2022-11-10T18:29:20.281Z,8.36
2022-11-10T18:31:48.043Z,8.30
2022-11-10T18:34:15.795Z,8.26
2022-11-10T18:36:43.567Z,8.20
2022-11-10T18:39:11.329Z,8.16
2022-11-10T18:41:52.302Z,8.11
2022-11-10T18:44:20.496Z,8.07
2022-11-10T18:46:48.440Z,8.02
2022-11-10T18:49:16.227Z,7.95
2022-11-10T18:51:44.029Z,7.90
2022-11-10T18:54:11.760Z,7.88
2022-11-10T18:56:39.485Z,7.86
2022-11-10T18:59:07.181Z,7.85
2022-11-10T19:01:35.081Z,7.82
2022-11-10T19:04:02.989Z,7.77
2022-11-10T19:06:30.863Z,7.75
2022-11-10T19:08:58.925Z,7.70
2022-11-10T19:11:26.890Z,7.64
2022-11-10T19:13:54.655Z,7.58
2022-11-10T19:16:22.346Z,7.54
2022-11-10T19:18:50.489Z,7.50
2022-11-10T19:21:21.430Z,7.48
2022-11-10T19:23:49.199Z,7.44
2022-11-10T19:26:22.581Z,7.41
2022-11-10T19:28:53.378Z,7.35
2022-11-10T19:31:23.040Z,7.29
2022-11-10T19:33:54.196Z,7.24
2022-11-10T19:36:27.316Z,7.21
2022-11-10T19:38:56.192Z,7.19
2022-11-10T19:41:29.470Z,7.18
2022-11-10T19:43:59.688Z,7.19
2022-11-10T19:46:29.517Z,7.19
2022-11-10T19:48:57.341Z,7.20
2022-11-10T19:51:26.008Z,7.21
2022-11-10T19:54:01.499Z,7.18
2022-11-10T19:56:32.239Z,7.16
2022-11-10T19:59:00.473Z,7.15
2022-11-10T20:01:28.364Z,7.14
2022-11-10T20:03:56.105Z,7.12
2022-11-10T20:06:23.891Z,7.08
2022-11-10T20:08:51.749Z,7.02
2022-11-10T20:11:26.051Z,6.98
2022-11-10T20:13:56.739Z,6.95
2022-11-10T20:16:24.649Z,6.92
2022-11-10T20:18:52.723Z,6.91
2022-11-10T20:21:26.019Z,6.89
2022-11-10T20:23:56.030Z,6.85
2022-11-10T20:26:24.954Z,6.82
2022-11-10T20:28:52.989Z,6.81
2022-11-10T20:31:26.310Z,6.78
2022-11-10T20:33:55.912Z,6.77
2022-11-10T20:36:27.380Z,6.76
2022-11-10T20:38:56.106Z,6.75
2022-11-10T20:41:26.550Z,6.70
2022-11-10T20:43:55.324Z,6.69
2022-11-10T20:46:48.310Z,6.66
2022-11-10T20:49:10.929Z,6.63
2022-11-10T20:51:38.626Z,6.58
2022-11-10T20:54:06.642Z,6.54
2022-11-10T20:56:34.431Z,6.50
2022-11-10T20:59:02.502Z,6.47
2022-11-10T21:01:30.344Z,6.44
2022-11-10T21:03:58.837Z,6.42
2022-11-10T21:06:26.481Z,6.39
2022-11-10T21:08:54.341Z,6.37
2022-11-10T21:11:40.573Z,6.37
2022-11-10T21:14:08.307Z,6.33
2022-11-10T21:16:35.970Z,6.34
2022-11-10T21:19:03.721Z,6.33
2022-11-10T21:21:34.943Z,6.33
2022-11-10T21:24:03.976Z,6.30
2022-11-10T21:26:34.333Z,6.26
2022-11-10T21:29:09.758Z,6.24
2022-11-10T21:31:37.930Z,6.20
2022-11-10T21:34:06.506Z,6.18
2022-11-10T21:36:34.607Z,6.13
2022-11-10T21:39:03.010Z,6.10
2022-11-10T21:41:32.969Z,6.07
2022-11-10T21:44:00.652Z,6.04
2022-11-10T21:46:28.417Z,6.01
2022-11-10T21:48:56.383Z,5.97
2022-11-10T21:51:24.127Z,5.94
2022-11-10T21:53:51.997Z,5.92
2022-11-10T21:56:19.752Z,5.92
2022-11-10T21:58:47.513Z,5.93
2022-11-10T22:01:19.456Z,5.93
2022-11-10T22:03:47.345Z,5.91
2022-11-10T22:06:17.666Z,5.89
2022-11-10T22:08:47.052Z,5.88
2022-11-10T22:11:37.064Z,5.89
2022-11-10T22:14:34.494Z,5.90
2022-11-10T22:17:20.814Z,5.92
2022-11-10T22:19:48.476Z,5.92
2022-11-10T22:22:16.295Z,5.92
2022-11-10T22:24:43.997Z,5.95
2022-11-10T22:27:12.167Z,5.97
2022-11-10T22:29:42.391Z,5.99
2022-11-10T22:32:10.136Z,6.02
2022-11-10T22:34:38.022Z,6.02
2022-11-10T22:37:05.714Z,6.02
2022-11-10T22:39:52.163Z,6.01
2022-11-10T22:42:38.784Z,5.99
2022-11-10T22:45:07.260Z,5.99
2022-11-10T22:47:53.766Z,5.98
2022-11-10T22:50:21.528Z,5.95
2022-11-10T22:52:49.188Z,5.93
2022-11-10T22:55:16.880Z,5.92
2022-11-10T22:57:44.556Z,5.90
2022-11-10T23:00:13.293Z,5.86
2022-11-10T23:02:41.062Z,5.83
2022-11-10T23:05:08.963Z,5.83
2022-11-10T23:07:36.793Z,5.83
2022-11-10T23:10:05.513Z,5.81
2022-11-10T23:12:33.230Z,5.80
2022-11-10T23:15:01.001Z,5.83
2022-11-10T23:17:29.042Z,5.82
2022-11-10T23:19:56.838Z,5.83
2022-11-10T23:22:24.488Z,5.85
2022-11-10T23:24:57.069Z,5.90
2022-11-10T23:27:25.269Z,5.95
2022-11-10T23:29:55.364Z,6.00
2022-11-10T23:32:23.132Z,6.04
2022-11-10T23:34:51.391Z,6.08
2022-11-10T23:37:21.126Z,6.09
2022-11-10T23:39:48.863Z,6.10
2022-11-10T23:42:16.563Z,6.12
2022-11-10T23:44:44.402Z,6.13
2022-11-10T23:47:12.165Z,6.14
2022-11-10T23:49:39.933Z,6.15
2022-11-10T23:52:07.691Z,6.16
2022-11-10T23:54:35.406Z,6.18
2022-11-10T23:57:03.728Z,6.19
2022-11-10T23:59:31.453Z,6.21
